Time;durP1;ratioP1;P1;durP2;ratioP2;P2;SDS_P1;SDS_P2;PMS_P1;PMS_P2;Temp;Humidity;BMP_temperature;BMP_pressure;BME280_temperature;BME280_humidity;BME280_pressure;Samples;Min_cycle;Max_cycle;Signal;HPM_P1;HPM_P2
2022/05/21 00:03:25;;;;;;;1.65;0.40;;;;;;;18.03;54.22;100545.84;10371680;28;20063;-63
2022/05/21 00:08:27;;;;;;;1.15;0.50;;;;;;;18.04;55.88;100552.88;10373219;28;20124;-64
2022/05/21 00:13:28;;;;;;;1.42;0.55;;;;;;;18.07;55.92;100555.25;10371671;28;20053;-63
2022/05/21 00:18:29;;;;;;;1.90;0.75;;;;;;;17.98;54.29;100573.22;10370388;28;20540;-65
2022/05/21 00:23:33;;;;;;;0.98;0.52;;;;;;;17.84;55.62;100579.22;10371196;28;20191;-64
2022/05/21 00:28:37;;;;;;;2.78;0.60;;;;;;;17.59;55.92;100587.19;10372700;28;20045;-63
2022/05/21 00:33:39;;;;;;;1.40;0.70;;;;;;;17.10;55.81;100546.59;10376332;28;20053;-64
2022/05/21 00:38:41;;;;;;;2.40;0.70;;;;;;;17.41;55.88;100594.50;10383770;28;20141;-65
2022/05/21 00:43:48;;;;;;;1.40;1.10;;;;;;;17.17;54.92;100590.66;10370331;28;20045;-63
2022/05/21 00:49:01;;;;;;;1.77;1.27;;;;;;;17.21;55.92;100602.81;10368986;28;20136;-63
2022/05/21 00:54:05;;;;;;;8.02;2.30;;;;;;;16.84;55.78;100560.81;10372929;28;20078;-63
2022/05/21 01:04:27;;;;;;;2.10;1.00;;;;;;;17.11;55.90;100599.38;10373255;28;20431;-63
2022/05/21 01:09:28;;;;;;;2.47;1.00;;;;;;;17.25;55.68;100601.50;10371342;28;20168;-63
2022/05/21 01:14:30;;;;;;;2.65;0.93;;;;;;;17.21;55.72;100604.66;10372373;28;20353;-63
2022/05/21 01:19:32;;;;;;;2.00;1.00;;;;;;;17.03;55.26;100619.00;10374838;28;20087;-63
2022/05/21 01:24:33;;;;;;;2.35;0.95;;;;;;;17.07;56.01;100622.19;10375572;28;20137;-63
2022/05/21 01:29:35;;;;;;;2.53;0.98;;;;;;;16.88;56.03;100626.75;10372016;28;20079;-63
2022/05/21 01:34:36;;;;;;;2.40;1.05;;;;;;;16.80;57.61;100632.06;10364038;28;20049;-63
2022/05/21 01:39:38;;;;;;;1.70;1.00;;;;;;;16.87;57.76;100640.38;10368591;28;20677;-64
2022/05/21 01:44:40;;;;;;;4.10;1.10;;;;;;;16.99;57.48;100638.28;10368491;28;20068;-63
2022/05/21 01:49:42;;;;;;;1.00;0.60;;;;;;;16.87;58.66;100641.19;10366591;28;20192;-63
2022/05/21 01:54:43;;;;;;;1.27;0.80;;;;;;;16.70;58.54;100644.72;10368231;28;20053;-63
2022/05/21 01:59:45;;;;;;;3.67;1.02;;;;;;;16.53;58.33;100658.00;10369628;28;20057;-63
2022/05/21 02:04:46;;;;;;;4.20;1.38;;;;;;;16.51;58.38;100667.22;10367581;28;20057;-63
2022/05/21 02:09:48;;;;;;;2.72;1.50;;;;;;;16.44;60.00;100658.94;10364935;28;20584;-64
2022/05/21 02:14:49;;;;;;;2.42;1.25;;;;;;;16.50;59.05;100666.38;10366016;28;20500;-64
2022/05/21 02:19:50;;;;;;;2.05;1.55;;;;;;;16.45;58.28;100657.91;10367003;28;20280;-64
2022/05/21 02:24:52;;;;;;;1.70;1.60;;;;;;;16.41;58.97;100653.88;10365522;28;20722;-64
2022/05/21 02:29:53;;;;;;;3.13;1.27;;;;;;;16.40;58.06;100668.28;10367501;28;20298;-63
2022/05/21 02:34:54;;;;;;;2.97;1.50;;;;;;;16.29;59.28;100679.22;10366705;28;20049;-64
2022/05/21 02:39:56;;;;;;;2.75;1.38;;;;;;;16.17;58.81;100666.03;10366379;28;20487;-63
2022/05/21 02:44:57;;;;;;;1.65;1.55;;;;;;;16.18;58.66;100667.72;10368330;28;20049;-64
2022/05/21 02:49:59;;;;;;;1.42;1.33;;;;;;;16.16;58.81;100677.75;10367327;28;20170;-64
2022/05/21 02:55:00;;;;;;;2.75;1.55;;;;;;;15.90;58.83;100654.28;10369878;28;20055;-63
2022/05/21 03:00:19;;;;;;;2.17;1.60;;;;;;;16.15;58.82;100694.84;10366699;28;20044;-63
2022/05/21 03:05:22;;;;;;;3.10;2.38;;;;;;;16.03;59.49;100691.53;10377897;28;20356;-63
2022/05/21 03:10:26;;;;;;;2.78;2.13;;;;;;;15.88;59.81;100687.63;10377604;28;20085;-63
2022/05/21 03:15:35;;;;;;;2.30;2.05;;;;;;;15.95;59.74;100693.25;10376737;28;20500;-63
2022/05/21 03:20:37;;;;;;;3.85;2.25;;;;;;;15.97;59.24;100686.72;10376112;28;20136;-62
2022/05/21 03:25:39;;;;;;;4.70;2.70;;;;;;;16.05;59.19;100704.81;10376305;28;20053;-64
2022/05/21 03:30:40;;;;;;;3.10;2.50;;;;;;;15.99;59.69;100683.91;10374161;28;20052;-64
2022/05/21 03:35:42;;;;;;;3.72;2.47;;;;;;;16.00;59.17;100685.59;10376078;28;20160;-63
2022/05/21 03:40:44;;;;;;;3.20;2.75;;;;;;;15.99;59.18;100686.59;10372448;28;20384;-63
2022/05/21 03:45:46;;;;;;;2.92;2.33;;;;;;;15.75;59.89;100655.72;10371042;28;20046;-63
2022/05/21 03:50:47;;;;;;;3.42;2.90;;;;;;;15.99;59.66;100697.31;10373762;28;20053;-63
2022/05/21 03:55:51;;;;;;;2.50;2.30;;;;;;;15.96;59.92;100705.66;10374220;28;20069;-63
2022/05/21 04:00:52;;;;;;;3.35;2.60;;;;;;;15.89;59.83;100700.91;10372234;28;20049;-63
2022/05/21 04:05:56;;;;;;;2.90;2.17;;;;;;;16.07;59.84;100700.97;10368946;28;20116;-63
2022/05/21 04:10:57;;;;;;;4.47;2.60;;;;;;;15.95;59.39;100674.47;10372764;28;20049;-63
2022/05/21 04:15:58;;;;;;;4.25;3.35;;;;;;;16.14;58.91;100722.72;10371272;28;20072;-63
2022/05/21 04:21:00;;;;;;;4.72;3.50;;;;;;;15.98;59.53;100717.13;10371345;28;20054;-64
2022/05/21 04:26:01;;;;;;;3.97;3.63;;;;;;;15.93;61.14;100714.03;10371765;28;20113;-63
2022/05/21 04:31:03;;;;;;;2.80;2.60;;;;;;;16.00;61.64;100733.94;10372081;28;20103;-63
2022/05/21 04:36:20;;;;;;;5.03;4.07;;;;;;;15.83;61.32;100727.50;10373309;28;20656;-63
2022/05/21 04:41:22;;;;;;;3.95;3.38;;;;;;;15.69;60.08;100734.16;10370934;28;20041;-63
2022/05/21 04:46:24;;;;;;;3.70;2.80;;;;;;;15.74;61.29;100735.38;10371238;28;20140;-65
2022/05/21 04:51:26;;;;;;;4.28;3.17;;;;;;;15.75;61.60;100738.94;10371526;28;20071;-62
2022/05/21 04:56:27;;;;;;;6.15;3.75;;;;;;;15.76;62.71;100743.28;10373413;28;20041;-63
2022/05/21 05:01:44;;;;;;;3.60;3.30;;;;;;;15.59;62.18;100736.84;10370818;28;20424;-63
2022/05/21 05:06:45;;;;;;;3.38;3.08;;;;;;;15.62;62.47;100743.75;10374870;28;20060;-63
2022/05/21 05:11:47;;;;;;;5.68;3.50;;;;;;;15.67;62.39;100754.91;10377058;28;20489;-63
2022/05/21 05:16:49;;;;;;;4.43;3.90;;;;;;;15.65;61.85;100751.53;10376345;28;20053;-63
2022/05/21 05:21:52;;;;;;;4.00;3.20;;;;;;;15.63;62.59;100750.84;10368135;28;20100;-63
2022/05/21 05:26:53;;;;;;;3.95;3.30;;;;;;;15.83;62.49;100749.81;10370016;28;20136;-62
2022/05/21 05:31:55;;;;;;;4.60;2.97;;;;;;;15.89;60.56;100735.78;10374060;28;20141;-62
2022/05/21 05:36:56;;;;;;;3.05;2.70;;;;;;;15.72;60.49;100742.75;10371090;28;20053;-63
2022/05/21 05:42:02;;;;;;;4.28;3.30;;;;;;;15.88;60.22;100758.28;10370221;28;20090;-64
2022/05/21 05:47:04;;;;;;;2.72;2.22;;;;;;;15.82;59.97;100742.75;10368773;28;20055;-62
2022/05/21 05:52:07;;;;;;;4.55;1.75;;;;;;;15.83;59.86;100706.84;10367654;28;20051;-63
2022/05/21 05:57:12;;;;;;;3.83;1.60;;;;;;;16.20;59.50;100743.59;10369416;28;20057;-62
2022/05/21 06:07:40;;;;;;;6.30;1.42;;;;;;;15.87;59.10;100708.25;10367825;28;20115;-63
2022/05/21 06:12:42;;;;;;;4.57;1.77;;;;;;;16.09;58.69;100741.09;10380676;28;20346;-63
2022/05/21 06:17:44;;;;;;;1.40;0.93;;;;;;;16.22;59.52;100757.72;10366112;28;20061;-63
2022/05/21 06:22:45;;;;;;;3.15;1.08;;;;;;;16.37;58.32;100730.38;10367179;28;20122;-63
2022/05/21 06:27:50;;;;;;;3.45;1.50;;;;;;;16.35;57.49;100759.22;10368183;28;20143;-62
2022/05/21 06:32:51;;;;;;;2.58;0.82;;;;;;;16.30;57.43;100764.19;10368227;28;20053;-63
2022/05/21 06:37:52;;;;;;;5.38;1.42;;;;;;;16.34;57.77;100758.38;10367769;28;20638;-63
2022/05/21 06:42:54;;;;;;;4.85;0.88;;;;;;;16.36;57.35;100748.34;10374941;28;20049;-63
2022/05/21 06:48:03;;;;;;;2.13;0.80;;;;;;;16.51;56.56;100755.88;10386774;28;20057;-64
2022/05/21 06:53:04;;;;;;;2.60;1.10;;;;;;;16.48;57.06;100754.34;10376243;28;20045;-64
2022/05/21 06:58:07;;;;;;;4.25;0.85;;;;;;;16.63;56.53;100748.47;10373331;28;20236;-65
2022/05/21 07:03:08;;;;;;;3.22;1.17;;;;;;;16.55;55.72;100723.19;10372015;28;20045;-64
2022/05/21 07:08:23;;;;;;;2.30;1.05;;;;;;;16.72;55.31;100752.94;10371458;28;20128;-63
2022/05/21 07:13:24;;;;;;;2.97;1.25;;;;;;;16.72;54.99;100731.44;10370337;28;20107;-63
2022/05/21 07:18:29;;;;;;;2.33;0.73;;;;;;;17.04;54.81;100756.97;10372275;28;20076;-63
2022/05/21 07:23:31;;;;;;;3.72;0.80;;;;;;;17.16;55.26;100763.84;10370036;28;20575;-63
2022/05/21 07:28:33;;;;;;;2.28;1.08;;;;;;;17.26;54.40;100764.59;10373905;28;20503;-63
2022/05/21 07:33:35;;;;;;;1.65;0.80;;;;;;;17.36;54.20;100761.81;10372123;28;20432;-64
2022/05/21 07:38:36;;;;;;;3.25;0.60;;;;;;;17.63;52.43;100760.00;10372065;28;20292;-63
2022/05/21 07:43:38;;;;;;;4.03;1.23;;;;;;;17.65;51.73;100720.31;10371786;28;20049;-63
2022/05/21 07:48:39;;;;;;;3.08;0.98;;;;;;;18.14;52.07;100744.03;10371417;28;20049;-64
2022/05/21 07:53:42;;;;;;;3.55;0.60;;;;;;;17.88;51.52;100717.94;10371723;28;22436;-63
2022/05/21 07:58:50;;;;;;;4.32;0.95;;;;;;;18.16;50.80;100752.78;10381723;28;20309;-63
2022/05/21 08:03:51;;;;;;;3.53;0.82;;;;;;;17.99;51.09;100750.00;10373681;28;20046;-63
2022/05/21 08:08:54;;;;;;;2.10;0.52;;;;;;;18.35;54.54;100766.00;10370219;28;20053;-64
2022/05/21 08:13:55;;;;;;;3.35;0.70;;;;;;;18.51;51.20;100759.84;10384309;28;20073;-64
2022/05/21 08:18:57;;;;;;;2.22;0.65;;;;;;;18.31;50.64;100726.06;10401002;28;20381;-65
2022/05/21 08:29:18;;;;;;;2.50;0.73;;;;;;;19.14;48.40;100764.88;10381138;28;20079;-65
2022/05/21 08:34:21;;;;;;;6.43;1.00;;;;;;;19.16;47.97;100761.00;10352738;28;20201;-65
2022/05/21 08:39:23;;;;;;;1.80;0.50;;;;;;;19.31;47.58;100761.19;10347675;28;20096;-65
2022/05/21 08:44:39;;;;;;;5.10;0.55;;;;;;;19.49;47.15;100747.53;10380390;28;20455;-66
2022/05/21 08:50:15;;;;;;;1.55;0.43;;;;;;;19.75;46.78;100768.06;10377325;28;20195;-63
2022/05/21 08:55:23;;;;;;;1.73;0.70;;;;;;;19.60;46.53;100755.25;10387657;28;20057;-63
2022/05/21 09:00:30;;;;;;;2.13;0.38;;;;;;;19.72;47.27;100753.06;10382041;28;20660;-68
2022/05/21 09:05:32;;;;;;;0.80;0.30;;;;;;;19.59;45.17;100688.78;10389802;28;20049;-65
2022/05/21 09:10:56;;;;;;;4.57;0.70;;;;;;;20.06;45.24;100749.28;10382950;28;20053;-64
2022/05/21 09:21:21;;;;;;;2.65;1.08;;;;;;;19.61;46.67;100746.16;10391924;28;19987;-63
2022/05/21 09:26:28;;;;;;;3.50;0.70;;;;;;;19.82;47.49;100736.69;10391461;28;20049;-65
2022/05/21 09:31:31;;;;;;;3.30;0.70;;;;;;;19.82;46.52;100746.69;10388415;28;20061;-64
2022/05/21 09:36:35;;;;;;;2.63;0.60;;;;;;;20.16;45.66;100737.44;10390332;28;20326;-63
2022/05/21 09:41:37;;;;;;;;;;;;;;;20.53;43.87;100733.22;10382977;28;20086;-65
2022/05/21 09:46:40;;;;;;;5.20;0.63;;;;;;;19.86;45.91;100711.03;10392514;28;19929;-66
2022/05/21 09:51:52;;;;;;;3.40;1.10;;;;;;;20.46;44.68;100730.38;10388076;28;20197;-65
2022/05/21 09:56:57;;;;;;;2.83;0.50;;;;;;;20.81;44.41;100698.44;10389027;28;20191;-67
2022/05/21 10:02:22;;;;;;;3.00;0.43;;;;;;;20.57;43.41;100740.81;10391731;28;20041;-64
2022/05/21 10:12:52;;;;;;;1.40;0.45;;;;;;;21.32;43.18;100733.06;10387000;28;20056;-64
2022/05/21 10:18:07;;;;;;;2.63;0.70;;;;;;;20.85;42.29;100732.19;10390731;28;20045;-66
2022/05/21 10:23:31;;;;;;;2.15;0.70;;;;;;;20.88;42.88;100741.84;10387869;28;20058;-65
2022/05/21 10:28:49;;;;;;;1.15;0.50;;;;;;;21.46;41.98;100740.34;10386716;28;20069;-65
2022/05/21 10:34:35;;;;;;;2.38;0.40;;;;;;;22.03;40.88;100719.16;10388219;28;20049;-66
2022/05/21 10:40:13;;;;;;;3.58;0.47;;;;;;;23.07;38.53;100737.91;10352944;28;20113;-66
2022/05/21 10:45:40;;;;;;;3.25;0.30;;;;;;;23.08;39.08;100727.91;10384532;28;20045;-66
2022/05/21 10:51:02;;;;;;;2.65;0.65;;;;;;;22.83;36.08;100694.88;10381621;28;20060;-66
2022/05/21 10:56:16;;;;;;;2.35;0.50;;;;;;;23.05;36.67;100720.16;10377815;28;20704;-67
2022/05/21 11:01:30;;;;;;;3.33;0.60;;;;;;;22.84;37.60;100727.25;10364456;28;20061;-64
2022/05/21 11:06:39;;;;;;;1.27;0.40;;;;;;;22.12;39.46;100723.44;10341156;28;20097;-64
2022/05/21 11:12:13;;;;;;;4.40;0.43;;;;;;;22.32;39.54;100728.31;10350419;28;20046;-64
2022/05/21 11:17:32;;;;;;;;;;;;;;;21.85;39.48;100728.50;10338311;28;20535;-62
2022/05/21 11:22:44;;;;;;;3.63;0.50;;;;;;;22.36;38.06;100700.63;10340919;28;20461;-62
2022/05/21 11:27:54;;;;;;;1.13;0.38;;;;;;;22.27;37.46;100719.88;10348027;28;20132;-63
2022/05/21 11:38:42;;;;;;;1.30;0.70;;;;;;;22.17;38.59;100710.19;10343006;28;20079;-64
2022/05/21 11:49:34;;;;;;;1.08;0.35;;;;;;;22.91;36.51;100709.16;10341236;28;20062;-64
2022/05/21 11:54:45;;;;;;;2.15;0.50;;;;;;;23.48;34.21;100703.84;10338482;28;20057;-64
2022/05/21 11:59:51;;;;;;;0.90;0.30;;;;;;;23.19;34.52;100702.97;10338799;28;20267;-63
2022/05/21 12:05:05;;;;;;;2.70;0.30;;;;;;;23.23;34.74;100695.28;10335744;28;20076;-64
2022/05/21 12:10:12;;;;;;;1.65;0.82;;;;;;;23.40;35.33;100702.09;10338224;28;20056;-62
2022/05/21 12:15:18;;;;;;;2.72;1.00;;;;;;;23.19;34.41;100686.66;10337802;28;20056;-63
2022/05/21 12:20:46;;;;;;;3.10;0.30;;;;;;;23.48;34.26;100695.69;10336141;28;20061;-63
2022/05/21 12:25:59;;;;;;;1.58;0.50;;;;;;;23.39;34.02;100697.72;10334630;28;20049;-67
2022/05/21 12:31:06;;;;;;;2.80;0.45;;;;;;;23.40;35.28;100687.66;10336675;28;20521;-63
2022/05/21 12:36:31;;;;;;;2.15;0.50;;;;;;;23.24;34.35;100686.94;10336088;28;20057;-64
2022/05/21 12:41:38;;;;;;;4.10;0.50;;;;;;;23.52;34.11;100680.66;10330853;28;20042;-65
2022/05/21 12:46:41;;;;;;;2.58;0.60;;;;;;;23.69;34.10;100672.19;10331712;28;20483;-63
2022/05/21 12:51:49;;;;;;;2.97;0.50;;;;;;;23.47;33.61;100667.66;10351099;28;20061;-63
2022/05/21 12:56:51;;;;;;;1.27;0.50;;;;;;;23.54;33.51;100673.16;10351857;28;20049;-63
2022/05/21 13:01:59;;;;;;;1.60;0.30;;;;;;;23.41;35.10;100667.63;10335540;28;20487;-64
2022/05/21 13:07:06;;;;;;;1.35;0.30;;;;;;;23.44;34.46;100667.22;10332336;28;20148;-63
2022/05/21 13:12:14;;;;;;;1.35;0.40;;;;;;;23.59;33.48;100673.38;10344272;28;20383;-63
2022/05/21 13:17:47;;;;;;;3.85;1.10;;;;;;;23.42;33.38;100664.72;10345708;28;20059;-63
2022/05/21 13:23:29;;;;;;;1.87;0.30;;;;;;;23.42;34.27;100672.00;10332771;28;20048;-66
2022/05/21 13:28:31;;;;;;;1.83;0.60;;;;;;;23.57;33.83;100666.47;10338805;28;20045;-66
2022/05/21 13:33:44;;;;;;;1.77;0.50;;;;;;;23.53;33.87;100655.16;10334685;28;20057;-65
2022/05/21 13:38:48;;;;;;;;;;;;;;;23.25;33.93;100649.75;10334732;28;20559;-63
2022/05/21 13:43:50;;;;;;;2.47;0.57;;;;;;;23.29;34.53;100608.41;10336066;28;19929;-63
2022/05/21 13:48:55;;;;;;;2.05;1.13;;;;;;;23.11;33.89;100630.63;10334243;28;20053;-65
2022/05/21 13:53:57;;;;;;;1.38;0.30;;;;;;;22.89;34.16;100640.66;10339906;28;20060;-66
2022/05/21 13:59:11;;;;;;;1.80;0.63;;;;;;;23.11;34.07;100637.94;10338187;28;20437;-66
2022/05/21 14:04:29;;;;;;;1.27;0.38;;;;;;;23.14;34.41;100629.41;10352269;28;20054;-65
2022/05/21 14:09:33;;;;;;;0.95;0.60;;;;;;;23.04;34.25;100628.88;10336009;28;20041;-63
2022/05/21 14:14:40;;;;;;;1.45;0.40;;;;;;;23.09;33.86;100619.16;10338282;28;20061;-63
2022/05/21 14:20:04;;;;;;;1.77;0.40;;;;;;;22.89;34.48;100624.34;10336297;28;20060;-63
2022/05/21 14:25:24;;;;;;;3.50;0.63;;;;;;;22.60;34.70;100617.22;10338052;28;20045;-63
2022/05/21 14:30:41;;;;;;;1.05;0.30;;;;;;;22.82;34.33;100604.50;10335704;28;20231;-63
2022/05/21 14:35:44;;;;;;;1.55;0.63;;;;;;;22.81;34.51;100602.81;10336541;28;20123;-63
2022/05/21 14:40:47;;;;;;;1.27;0.63;;;;;;;22.75;34.45;100598.16;10334069;28;20083;-64
2022/05/21 14:45:49;;;;;;;2.40;0.70;;;;;;;22.83;34.92;100606.16;10333218;28;20768;-64
2022/05/21 14:56:26;;;;;;;2.42;0.50;;;;;;;22.52;34.74;100598.34;10339676;28;20056;-66
2022/05/21 15:01:29;;;;;;;1.85;0.22;;;;;;;22.56;34.97;100592.38;10341158;28;20045;-64
2022/05/21 15:06:33;;;;;;;1.63;0.73;;;;;;;22.36;35.08;100596.75;10342374;28;20053;-62
2022/05/21 15:11:37;;;;;;;1.83;0.85;;;;;;;22.05;35.06;100576.13;10338841;28;20431;-64
2022/05/21 15:16:40;;;;;;;1.75;1.05;;;;;;;22.10;35.71;100579.13;10345566;28;20050;-65
2022/05/21 15:21:44;;;;;;;2.47;1.00;;;;;;;22.33;35.78;100578.97;10344607;28;20058;-63
2022/05/21 15:26:45;;;;;;;2.08;0.40;;;;;;;22.36;35.83;100575.06;10353143;28;20310;-63
2022/05/21 15:31:47;;;;;;;3.75;1.38;;;;;;;21.85;36.50;100565.91;10341735;28;20053;-63
2022/05/21 15:36:48;;;;;;;2.03;0.50;;;;;;;22.05;36.04;100554.44;10342969;28;20058;-64
2022/05/21 15:41:50;;;;;;;2.85;0.88;;;;;;;22.03;36.16;100553.81;10341676;28;20056;-64
2022/05/21 15:46:51;;;;;;;3.75;1.80;;;;;;;21.80;35.32;100548.53;10340193;28;20049;-61
2022/05/21 15:51:53;;;;;;;1.55;0.95;;;;;;;21.67;36.19;100541.94;10340656;28;20062;-64
2022/05/21 15:56:54;;;;;;;2.40;0.77;;;;;;;21.93;36.23;100534.31;10339013;28;20045;-63
2022/05/21 16:01:56;;;;;;;4.95;2.70;;;;;;;21.77;36.37;100519.97;10338907;28;20079;-64
2022/05/21 16:06:57;;;;;;;7.18;5.72;;;;;;;21.68;35.66;100521.94;10336947;28;20046;-64
2022/05/21 16:11:58;;;;;;;17.42;15.48;;;;;;;21.70;36.15;100522.59;10336945;28;21150;-63
2022/05/21 16:17:00;;;;;;;3.10;2.00;;;;;;;21.79;36.06;100515.19;10322753;28;20064;-63
2022/05/21 16:22:21;;;;;;;1.88;0.82;;;;;;;21.76;35.66;100507.44;10329349;28;20599;-64
2022/05/21 16:27:24;;;;;;;1.98;1.10;;;;;;;21.62;35.65;100503.75;10314466;28;20057;-63
2022/05/21 16:32:29;;;;;;;2.00;0.65;;;;;;;21.70;36.12;100508.22;10326744;28;20053;-65
2022/05/21 16:37:30;;;;;;;2.47;1.33;;;;;;;21.54;36.08;100499.28;10337711;28;20719;-63
2022/05/21 16:42:32;;;;;;;2.17;0.50;;;;;;;21.35;36.69;100497.13;10340698;28;20060;-63
2022/05/21 16:47:34;;;;;;;2.00;0.80;;;;;;;21.36;36.50;100505.06;10338728;28;20053;-63
2022/05/21 16:52:38;;;;;;;1.08;0.40;;;;;;;21.54;36.80;100501.13;10338043;28;20492;-64
2022/05/21 16:57:40;;;;;;;;;;;;;;;21.58;36.47;100483.47;10341017;28;20123;-64
2022/05/21 17:02:41;;;;;;;2.58;1.10;;;;;;;21.58;36.63;100486.19;10345984;28;20243;-64
2022/05/21 17:07:43;;;;;;;1.45;0.70;;;;;;;21.56;36.85;100488.25;10342262;28;20053;-64
2022/05/21 17:12:44;;;;;;;1.58;0.40;;;;;;;21.57;36.74;100486.38;10339497;28;20108;-64
2022/05/21 17:17:46;;;;;;;1.23;0.60;;;;;;;21.45;36.82;100472.47;10336400;28;20054;-62
2022/05/21 17:22:47;;;;;;;1.88;0.50;;;;;;;21.33;37.54;100437.75;10338426;28;20052;-62
2022/05/21 17:33:14;;;;;;;1.38;0.50;;;;;;;21.30;37.12;100456.22;10328791;28;20615;-65
2022/05/21 17:38:16;;;;;;;1.85;0.77;;;;;;;21.32;37.32;100457.72;10334841;28;20084;-64
2022/05/21 17:43:17;;;;;;;1.42;0.75;;;;;;;21.43;38.96;100453.69;10334627;28;20063;-64
2022/05/21 17:48:20;;;;;;;1.55;0.82;;;;;;;21.45;38.58;100445.38;10330819;28;20617;-64
2022/05/21 17:53:25;;;;;;;3.42;1.42;;;;;;;21.43;39.33;100450.16;10342899;28;20921;-64
2022/05/21 17:58:27;;;;;;;2.35;0.82;;;;;;;21.13;39.72;100409.59;10330503;28;20151;-64
2022/05/21 18:03:30;;;;;;;1.52;0.60;;;;;;;21.32;39.48;100435.25;10331565;28;20552;-64
2022/05/21 18:08:32;;;;;;;1.48;0.60;;;;;;;21.26;39.51;100430.56;10331423;28;20057;-62
2022/05/21 18:13:34;;;;;;;3.17;0.80;;;;;;;20.87;40.58;100369.50;10331004;28;20049;-61
2022/05/21 18:23:56;;;;;;;3.65;2.20;;;;;;;21.17;40.52;100438.81;10291481;28;1122896;-62
2022/05/21 18:28:58;;;;;;;4.25;1.60;;;;;;;20.87;41.14;100410.94;10333485;28;20050;-62
2022/05/21 18:34:02;;;;;;;2.13;1.30;;;;;;;21.01;41.18;100431.72;10329251;28;20115;-62
2022/05/21 18:39:04;;;;;;;2.40;1.50;;;;;;;20.94;41.78;100446.19;10326367;28;20062;-61
2022/05/21 18:44:05;;;;;;;2.65;1.77;;;;;;;20.83;43.27;100436.69;10332582;28;20569;-63
2022/05/21 18:49:07;;;;;;;3.55;1.48;;;;;;;20.75;42.41;100436.78;10329104;28;20075;-65
2022/05/21 18:54:12;;;;;;;4.05;1.48;;;;;;;20.63;41.83;100434.50;10333025;28;20140;-60
2022/05/21 18:59:14;;;;;;;3.60;1.85;;;;;;;20.52;42.12;100444.91;10330041;28;20918;-61
2022/05/21 19:04:15;;;;;;;4.80;1.58;;;;;;;20.46;43.02;100444.63;10332156;28;20050;-62
2022/05/21 19:09:17;;;;;;;3.22;1.75;;;;;;;20.35;42.93;100439.66;10329912;28;20053;-61
2022/05/21 19:14:19;;;;;;;3.47;1.00;;;;;;;20.25;44.04;100436.38;10328733;28;20104;-61
2022/05/21 19:19:22;;;;;;;4.00;1.42;;;;;;;20.04;43.98;100410.91;10331260;28;20053;-60
2022/05/21 19:24:29;;;;;;;2.83;1.07;;;;;;;20.16;43.49;100446.41;10330903;28;20049;-62
2022/05/21 19:29:33;;;;;;;3.35;1.30;;;;;;;20.07;44.17;100450.19;10328535;28;20045;-61
2022/05/21 19:34:35;;;;;;;2.35;1.63;;;;;;;20.00;43.72;100452.78;10331120;28;20072;-61
2022/05/21 19:44:58;;;;;;;2.83;1.20;;;;;;;19.87;45.08;100453.38;10330447;28;20111;-60
2022/05/21 19:50:00;;;;;;;4.50;1.40;;;;;;;19.86;46.05;100456.25;10336563;28;20061;-61
2022/05/21 19:55:03;;;;;;;2.75;1.60;;;;;;;19.82;45.91;100449.56;10339197;28;20203;-63
2022/05/21 20:00:05;;;;;;;2.33;1.95;;;;;;;19.76;46.07;100454.63;10335592;28;20053;-63
2022/05/21 20:05:08;;;;;;;3.97;2.38;;;;;;;19.73;45.31;100459.53;10332851;28;20104;-61
2022/05/21 20:10:10;;;;;;;3.20;2.90;;;;;;;19.65;45.69;100456.88;10331740;28;20075;-61
2022/05/21 20:15:12;;;;;;;6.60;4.45;;;;;;;19.62;45.79;100455.38;10333753;28;20303;-61
2022/05/21 20:20:18;;;;;;;5.45;2.92;;;;;;;19.65;46.54;100459.56;10330854;28;20050;-61
2022/05/21 20:25:20;;;;;;;4.35;3.25;;;;;;;19.67;46.15;100466.50;10326402;28;20096;-61
2022/05/21 20:30:22;;;;;;;2.88;2.50;;;;;;;19.44;46.03;100425.94;10324050;28;20056;-61
2022/05/21 20:35:24;;;;;;;3.38;2.42;;;;;;;19.60;45.36;100447.44;10324168;28;20065;-60
2022/05/21 20:40:25;;;;;;;3.17;2.20;;;;;;;19.62;46.51;100455.38;10340668;28;20770;-60
2022/05/21 20:45:27;;;;;;;4.65;2.50;;;;;;;19.63;45.76;100458.94;10322917;28;20111;-63
2022/05/21 20:50:29;;;;;;;4.72;3.13;;;;;;;19.61;45.82;100459.94;10322996;28;20069;-60
2022/05/21 20:55:30;;;;;;;3.90;2.55;;;;;;;19.50;45.86;100454.94;10330373;28;20065;-60
2022/05/21 21:00:32;;;;;;;3.85;2.38;;;;;;;19.42;46.61;100458.50;10325840;28;21900;-61
2022/05/21 21:05:35;;;;;;;3.60;1.98;;;;;;;19.37;47.03;100465.47;10327700;28;20057;-60
2022/05/21 21:10:38;;;;;;;4.75;2.63;;;;;;;19.33;47.49;100453.34;10329775;28;20073;-60
2022/05/21 21:15:40;;;;;;;4.97;2.58;;;;;;;19.31;47.91;100461.63;10335511;28;20488;-60
2022/05/21 21:20:41;;;;;;;4.13;2.10;;;;;;;19.13;47.93;100434.03;10328084;28;20934;-61
2022/05/21 21:25:42;;;;;;;3.67;2.40;;;;;;;19.19;47.88;100460.31;10330934;28;20053;-61
2022/05/21 21:30:44;;;;;;;4.93;2.47;;;;;;;19.05;48.55;100449.25;10330925;28;20419;-61
2022/05/21 21:35:45;;;;;;;5.25;2.95;;;;;;;19.04;48.30;100458.34;10365117;28;20148;-60
2022/05/21 21:40:47;;;;;;;3.78;2.45;;;;;;;18.92;48.23;100457.03;10368969;28;20064;-60
2022/05/21 21:45:48;;;;;;;6.60;3.17;;;;;;;18.85;48.63;100464.09;10371208;28;20640;-61
2022/05/21 21:50:50;;;;;;;5.80;2.67;;;;;;;18.80;49.30;100461.94;10369030;28;20300;-61
2022/05/21 21:55:51;;;;;;;2.85;2.00;;;;;;;18.73;48.06;100461.78;10369494;28;20669;-61
2022/05/21 22:01:29;;;;;;;3.08;2.00;;;;;;;18.46;49.37;100427.13;10369365;28;20052;-61
2022/05/21 22:06:31;;;;;;;3.83;2.00;;;;;;;18.61;48.85;100460.44;10367163;28;20065;-61
2022/05/21 22:11:33;;;;;;;2.45;1.83;;;;;;;18.59;49.48;100465.16;10367058;28;20049;-62
2022/05/21 22:16:34;;;;;;;4.20;2.30;;;;;;;18.48;51.00;100454.72;10371578;28;20191;-61
2022/05/21 22:21:38;;;;;;;3.25;2.22;;;;;;;18.36;49.18;100452.41;10370054;28;20551;-61
2022/05/21 22:26:40;;;;;;;2.83;1.67;;;;;;;18.35;51.93;100448.00;10368117;28;20053;-64
2022/05/21 22:31:43;;;;;;;3.72;2.42;;;;;;;18.20;50.18;100445.16;10366395;28;20610;-61
2022/05/21 22:36:44;;;;;;;6.05;2.45;;;;;;;18.04;50.94;100441.63;10367238;28;20068;-61
2022/05/21 22:41:46;;;;;;;4.63;2.58;;;;;;;18.11;53.00;100434.56;10368232;28;20049;-63
2022/05/21 22:46:47;;;;;;;4.68;2.00;;;;;;;18.14;52.26;100429.66;10373024;28;20059;-62
2022/05/21 22:51:48;;;;;;;5.07;2.35;;;;;;;18.05;51.78;100421.78;10368852;28;20073;-63
2022/05/21 22:56:50;;;;;;;4.78;2.70;;;;;;;17.97;52.50;100418.06;10367183;28;20057;-61
2022/05/21 23:01:53;;;;;;;5.00;3.10;;;;;;;17.98;53.46;100418.88;10370485;28;21070;-61
2022/05/21 23:06:55;;;;;;;5.63;2.60;;;;;;;17.98;53.47;100424.28;10368753;28;20055;-60
2022/05/21 23:11:56;;;;;;;4.18;2.53;;;;;;;17.92;53.32;100414.19;10369646;28;20121;-60
2022/05/21 23:22:24;;;;;;;3.65;2.85;;;;;;;17.85;54.20;100403.22;10369205;28;20051;-61
2022/05/21 23:27:27;;;;;;;4.85;2.35;;;;;;;17.82;54.54;100409.75;10376765;28;20056;-61
2022/05/21 23:32:28;;;;;;;7.60;2.88;;;;;;;17.79;54.85;100407.41;10377423;28;20138;-61
2022/05/21 23:37:30;;;;;;;3.55;2.60;;;;;;;17.77;55.52;100406.72;10375521;28;20045;-62
2022/05/21 23:42:31;;;;;;;7.60;3.10;;;;;;;17.77;55.93;100406.72;10376073;28;20046;-61
2022/05/21 23:47:33;;;;;;;5.60;3.58;;;;;;;17.70;55.89;100399.47;10377826;28;20115;-61
2022/05/21 23:52:35;;;;;;;8.38;4.75;;;;;;;17.72;55.86;100419.84;10376501;28;20226;-61
2022/05/21 23:57:38;;;;;;;6.22;4.10;;;;;;;17.70;55.95;100399.47;10374382;28;20058;-62
